Aérodrome :
LOGIN :

S'inscrire | Disclaimer

   EN    FR    IT 

 










Légende :    VFR   VFR Marginal   IFR   IFR Intensif   IFR Très Intensif
Visi : 
Plafond : 
>= 8 km
>= 3000ft
5 à 8 km
1000 à 3000 ft
1500m à 5 km
500 à 1000 ft
800 à 1500m
200 à 500 ft
< 800m
< 200 ft
Symboles :   Orages  Brouillard  Fortes neiges  Fortes précipitations  Vent > 20 kt
SIGMETs :   Divers  Orages  Givrage  Turbulence  Onde Orograph.  Cendres Volcan.







- Altitude de l'aérodrome : 755 ft
- Code IATA : DRS


EDDC - Dresden Klotzsche

DERNIER METAR :
  • 231450Z 28005KT 230V310 9999 SCT007 BKN033 09/09 Q1017 NOSIG

METARs EXPIRÉS :
  • 231420Z 29007KT 250V330 9999 -DZ BKN007 BKN017 10/08 Q1017 BECMG BKN015
  • 231350Z 28006KT 250V310 9999 -RA BKN007 BKN012 10/08 Q1017 BECMG BKN015
  • 231320Z 28006KT 250V320 2400 -DZRA BKN005 BKN011 09/09 Q1016 BECMG 6000 BKN010
  • 231250Z 29007KT 260V320 9999 -RA BKN005 BKN009 09/08 Q1016 TEMPO 4000 -DZ BR
  • 231220Z 28005KT 230V320 3400 -RADZ BKN006 09/08 Q1016 REDZ NOSIG

TAF COR TAF EDDC
Valide du 23 à 12h jusqu'au 24 à 12h UTC


231157Z 2312/2412 28008KT 6000 BKN010
TEMPO 2312/2316 2000 DZ BKN008
BECMG 2316/2318 21005KT BKN015
TEMPO 2403/2408 4000 BR BKN010
Pas de NOTAMs connus pour ce terrain.



MET'MAP, la Météo Aéronautique d'un coup d'oeil ! - Copyright ORBIFLY Décembre 2007 - Disclaimer

ORBIFLY MET'MAP TEAM :

Programmation & Développement : Alexandra Zaïnal
Conception & Développement : Baudouin d'Aumeries
Co-Programmation & Développement : Marc-Olivier Méhu
Soutien technique & logistique : Manuel Goepfert

Contact : metmap@orbifly.com




SOURCES & CREDITS :

   NOAA